Terminal Aerodrome Forecast
Issued by NWS

Home | Current Version | Previous Version | Graphics & Text | Print | Product List | Glossary On
Versions: 1 2 3 4 5 6 7 8 9 10 11 12 13
000
FTUS45 KVEF 250535
TAFDAG
TAF
KDAG 250535Z 2506/2606 VRB06KT P6SM SCT120 BKN150
     FM252000 23008KT P6SM VCTS SCT100CB BKN150
     FM260300 25014KT P6SM SCT250=

USA.gov is the U.S. government's official web portal to all federal, state and local government web resources and services.